createdAt,value
2019-05-09T00:01:14.190Z,41.60
2019-05-09T00:04:23.080Z,41.60
2019-05-09T00:07:13.871Z,41.60
2019-05-09T00:10:03.965Z,41.60
2019-05-09T00:12:53.906Z,41.60
2019-05-09T00:15:43.500Z,41.60
2019-05-09T00:18:33.663Z,41.60
2019-05-09T00:21:23.933Z,41.60
2019-05-09T00:24:13.921Z,41.60
2019-05-09T00:27:03.881Z,41.60
2019-05-09T00:29:53.248Z,41.60
2019-05-09T00:32:43.494Z,41.50
2019-05-09T00:35:33.921Z,41.60
2019-05-09T00:38:24.110Z,42.20
2019-05-09T00:41:13.933Z,41.90
2019-05-09T00:44:10.379Z,41.50
2019-05-09T00:47:00.254Z,41.50
2019-05-09T00:49:48.543Z,41.50
2019-05-09T00:52:36.737Z,41.40
2019-05-09T00:55:25.216Z,41.40
2019-05-09T00:58:14.495Z,41.40
2019-05-09T01:01:04.319Z,41.40
2019-05-09T01:03:53.677Z,41.50
2019-05-09T01:06:43.417Z,41.40
2019-05-09T01:09:33.404Z,41.40
2019-05-09T01:12:23.525Z,41.40
2019-05-09T01:15:13.355Z,41.40
2019-05-09T01:18:04.173Z,41.40
2019-05-09T01:20:53.112Z,41.40
2019-05-09T01:23:43.671Z,41.40
2019-05-09T01:26:33.411Z,41.40
2019-05-09T01:29:23.097Z,41.40
2019-05-09T01:32:14.518Z,41.40
2019-05-09T01:35:03.865Z,41.40
2019-05-09T01:38:13.989Z,41.40
2019-05-09T01:41:01.227Z,41.40
2019-05-09T01:43:49.488Z,41.40
2019-05-09T01:46:38.143Z,41.40
2019-05-09T01:49:26.578Z,41.30
2019-05-09T01:52:14.726Z,41.70
2019-05-09T01:55:03.685Z,41.30
2019-05-09T01:57:53.792Z,41.30
2019-05-09T02:00:43.782Z,41.30
2019-05-09T02:03:33.642Z,41.30
2019-05-09T02:06:24.470Z,41.30
2019-05-09T02:09:14.019Z,41.30
2019-05-09T02:12:03.887Z,41.30
2019-05-09T02:14:56.586Z,41.30
2019-05-09T02:18:01.258Z,41.30
2019-05-09T02:20:45.570Z,41.20
2019-05-09T02:23:34.318Z,41.30
2019-05-09T02:26:24.068Z,41.20
2019-05-09T02:29:13.811Z,41.20
2019-05-09T02:32:04.689Z,41.20
2019-05-09T02:34:54.753Z,41.20
2019-05-09T02:37:43.270Z,41.30
2019-05-09T02:40:31.748Z,41.20
2019-05-09T02:43:20.216Z,41.20
2019-05-09T02:46:10.330Z,41.30
2019-05-09T02:48:59.571Z,41.20
2019-05-09T02:51:48.866Z,41.20
2019-05-09T02:54:39.237Z,41.10
2019-05-09T02:57:29.423Z,41.10
2019-05-09T03:03:28.994Z,41.10
2019-05-09T03:06:19.612Z,41.10
2019-05-09T03:09:08.992Z,41.10
2019-05-09T03:11:58.981Z,41.10
2019-05-09T03:14:48.755Z,41.10
2019-05-09T03:17:38.621Z,41.10
2019-05-09T03:20:29.120Z,41.00
2019-05-09T03:23:19.131Z,41.10
2019-05-09T03:26:09.778Z,41.00
2019-05-09T03:29:08.567Z,41.10
2019-05-09T03:31:59.852Z,41.00
2019-05-09T03:34:47.851Z,41.00
2019-05-09T03:37:37.842Z,41.00
2019-05-09T03:40:27.206Z,41.00
2019-05-09T03:43:18.195Z,41.10
2019-05-09T03:46:18.053Z,41.00
2019-05-09T03:52:17.836Z,41.10
2019-05-09T03:55:10.851Z,41.10
2019-05-09T03:58:04.036Z,41.10
2019-05-09T04:00:52.114Z,41.10
2019-05-09T04:03:40.314Z,41.10
2019-05-09T04:06:28.913Z,41.20
2019-05-09T04:09:17.964Z,41.70
2019-05-09T04:12:07.525Z,41.70
2019-05-09T04:14:58.287Z,41.70
2019-05-09T04:17:47.585Z,41.70
2019-05-09T04:20:37.708Z,41.40
2019-05-09T04:23:27.572Z,41.40
2019-05-09T04:26:34.103Z,41.40
2019-05-09T04:29:23.420Z,41.40
2019-05-09T04:32:11.984Z,41.40
2019-05-09T04:35:00.500Z,41.40
2019-05-09T04:37:48.826Z,41.40
2019-05-09T04:40:44.970Z,41.40
2019-05-09T04:43:35.469Z,41.40
2019-05-09T04:46:24.124Z,41.50
2019-05-09T04:49:08.722Z,41.50
2019-05-09T04:51:58.437Z,41.50
2019-05-09T04:54:48.492Z,41.40
2019-05-09T04:57:38.265Z,41.50
2019-05-09T05:03:30.179Z,41.50
2019-05-09T05:06:20.718Z,41.50
2019-05-09T05:09:08.895Z,41.50
2019-05-09T05:11:58.005Z,41.50
2019-05-09T05:14:47.596Z,41.50
2019-05-09T05:17:37.795Z,41.50
2019-05-09T05:20:28.162Z,41.50
2019-05-09T05:23:24.040Z,41.50
2019-05-09T05:26:12.484Z,41.60
2019-05-09T05:29:01.097Z,41.60
2019-05-09T05:31:49.842Z,41.60
2019-05-09T05:34:43.036Z,41.60
2019-05-09T05:37:31.338Z,41.60
2019-05-09T05:40:19.590Z,41.60
2019-05-09T05:43:08.773Z,41.60
2019-05-09T05:45:59.123Z,41.70
2019-05-09T05:48:48.721Z,41.70
2019-05-09T05:51:49.551Z,41.70
2019-05-09T05:54:38.088Z,41.70
2019-05-09T05:57:27.952Z,41.70
2019-05-09T06:00:18.143Z,41.70
2019-05-09T06:03:08.800Z,41.70
2019-05-09T06:05:58.424Z,41.70
2019-05-09T06:08:48.483Z,41.80
2019-05-09T06:11:38.401Z,41.80
2019-05-09T06:14:28.399Z,41.80
2019-05-09T06:17:18.115Z,41.80
2019-05-09T06:20:08.894Z,41.80
2019-05-09T06:22:58.205Z,41.90
2019-05-09T06:25:48.472Z,41.90
2019-05-09T06:28:37.627Z,41.90
2019-05-09T06:31:28.316Z,41.90
2019-05-09T06:34:18.442Z,41.90
2019-05-09T06:37:08.978Z,41.90
2019-05-09T06:39:55.631Z,42.30
2019-05-09T06:42:45.479Z,42.00
2019-05-09T06:45:44.611Z,41.90
2019-05-09T06:48:33.306Z,41.90
2019-05-09T06:51:22.558Z,42.00
2019-05-09T06:54:11.316Z,42.00
2019-05-09T06:56:59.814Z,42.00
2019-05-09T06:59:48.763Z,42.10
2019-05-09T07:02:48.384Z,42.00
2019-05-09T07:05:38.753Z,42.10
2019-05-09T07:08:31.391Z,42.10
2019-05-09T07:11:19.306Z,42.20
2019-05-09T07:14:09.373Z,42.20
2019-05-09T07:16:59.185Z,42.20
2019-05-09T07:19:48.992Z,42.20
2019-05-09T07:22:39.444Z,42.20
2019-05-09T07:25:32.746Z,42.20
2019-05-09T07:28:20.988Z,42.20
2019-05-09T07:31:20.051Z,42.30
2019-05-09T07:34:24.223Z,42.30
2019-05-09T07:37:14.042Z,42.30
2019-05-09T07:40:02.295Z,42.30
2019-05-09T07:43:03.273Z,42.40
2019-05-09T07:46:11.607Z,42.40
2019-05-09T07:49:00.782Z,42.30
2019-05-09T07:51:48.982Z,42.30
2019-05-09T07:54:38.247Z,42.30
2019-05-09T07:57:28.522Z,42.50
2019-05-09T08:00:19.764Z,42.40
2019-05-09T08:03:12.277Z,42.40
2019-05-09T08:05:58.140Z,42.40
2019-05-09T08:08:47.638Z,42.40
2019-05-09T08:11:37.647Z,42.40
2019-05-09T08:14:28.114Z,42.40
2019-05-09T08:17:18.097Z,42.40
2019-05-09T08:20:07.923Z,42.40
2019-05-09T08:23:01.328Z,42.30
2019-05-09T08:25:48.518Z,42.30
2019-05-09T08:28:38.746Z,42.30
2019-05-09T08:31:28.087Z,42.30
2019-05-09T08:34:18.670Z,42.30
2019-05-09T08:37:08.206Z,42.40
2019-05-09T08:39:57.725Z,42.40
2019-05-09T08:42:48.041Z,42.40
2019-05-09T08:45:38.337Z,42.50
2019-05-09T08:48:28.317Z,42.50
2019-05-09T08:54:42.475Z,42.60
2019-05-09T08:57:30.900Z,42.60
2019-05-09T09:00:19.149Z,42.60
2019-05-09T09:03:08.234Z,42.60
2019-05-09T09:05:57.735Z,42.60
2019-05-09T09:08:48.289Z,42.60
2019-05-09T09:11:38.559Z,42.70
2019-05-09T09:14:27.842Z,42.70
2019-05-09T09:17:18.706Z,42.70
2019-05-09T09:20:07.889Z,42.70
2019-05-09T09:22:58.221Z,42.80
2019-05-09T09:25:48.644Z,42.70
2019-05-09T09:28:37.959Z,42.60
2019-05-09T09:31:28.501Z,42.70
2019-05-09T09:34:18.173Z,42.70
2019-05-09T09:37:11.315Z,42.70
2019-05-09T09:39:58.246Z,42.70
2019-05-09T09:42:48.794Z,42.80
2019-05-09T09:45:37.782Z,42.80
2019-05-09T09:48:28.424Z,42.80
2019-05-09T09:51:18.668Z,42.80
2019-05-09T09:54:08.866Z,42.80
2019-05-09T09:56:58.490Z,42.80
2019-05-09T09:59:58.376Z,42.80
2019-05-09T10:02:48.216Z,42.90
2019-05-09T10:05:38.072Z,42.90
2019-05-09T10:08:26.827Z,42.90
2019-05-09T10:11:17.738Z,42.90
2019-05-09T10:14:07.889Z,42.80
2019-05-09T10:17:03.569Z,42.80
2019-05-09T10:20:02.547Z,42.80
2019-05-09T10:22:59.818Z,42.90
2019-05-09T10:25:40.640Z,42.80
2019-05-09T10:28:30.152Z,42.80
2019-05-09T10:31:18.958Z,42.90
2019-05-09T10:34:10.558Z,42.90
2019-05-09T10:36:58.310Z,42.90
2019-05-09T10:39:49.024Z,42.90
2019-05-09T10:45:57.850Z,43.00
2019-05-09T10:48:48.272Z,43.00
2019-05-09T10:51:37.667Z,43.00
2019-05-09T10:54:27.869Z,42.90
2019-05-09T10:57:16.002Z,42.90
2019-05-09T11:00:08.724Z,42.90
2019-05-09T11:02:58.395Z,42.90
2019-05-09T11:05:46.740Z,42.90
2019-05-09T11:08:35.051Z,43.00
2019-05-09T11:11:23.569Z,43.30
2019-05-09T11:14:31.502Z,43.00
2019-05-09T11:17:09.987Z,42.90
2019-05-09T11:19:53.097Z,42.90
2019-05-09T11:22:41.460Z,42.90
2019-05-09T11:25:30.231Z,42.90
2019-05-09T11:28:18.611Z,43.00
2019-05-09T11:31:08.138Z,43.00
2019-05-09T11:33:57.888Z,43.00
2019-05-09T11:36:49.635Z,43.10
2019-05-09T11:39:42.017Z,43.20
2019-05-09T11:42:28.540Z,43.20
2019-05-09T11:45:17.964Z,43.20
2019-05-09T11:48:08.273Z,43.30
2019-05-09T11:50:58.343Z,43.30
2019-05-09T11:53:48.551Z,43.30
2019-05-09T11:56:38.498Z,43.40
2019-05-09T11:59:28.031Z,43.40
2019-05-09T12:02:18.067Z,43.40
2019-05-09T12:05:08.775Z,43.40
2019-05-09T12:07:58.351Z,43.40
2019-05-09T12:10:47.055Z,43.40
2019-05-09T12:13:35.117Z,43.40
2019-05-09T12:16:23.332Z,43.40
2019-05-09T12:19:11.484Z,43.50
2019-05-09T12:21:59.724Z,43.50
2019-05-09T12:24:48.899Z,43.50
2019-05-09T12:27:37.101Z,43.60
2019-05-09T12:30:25.376Z,43.50
2019-05-09T12:33:14.146Z,43.60
2019-05-09T12:36:02.444Z,43.60
2019-05-09T12:38:50.752Z,43.60
2019-05-09T12:41:38.959Z,43.70
2019-05-09T12:44:28.859Z,43.80
2019-05-09T12:47:19.024Z,44.10
2019-05-09T12:50:08.669Z,44.10
2019-05-09T12:52:57.967Z,44.00
2019-05-09T12:55:47.578Z,44.10
2019-05-09T12:58:36.213Z,44.10
2019-05-09T13:01:24.526Z,44.10
2019-05-09T13:04:13.034Z,44.10
2019-05-09T13:07:01.254Z,44.20
2019-05-09T13:09:52.667Z,44.20
2019-05-09T13:12:39.951Z,44.20
2019-05-09T13:15:31.012Z,44.10
2019-05-09T13:18:24.552Z,44.10
2019-05-09T13:21:09.952Z,44.10
2019-05-09T13:23:58.789Z,44.00
2019-05-09T13:26:49.188Z,44.00
2019-05-09T13:29:38.253Z,44.00
2019-05-09T13:32:28.028Z,44.00
2019-05-09T13:35:19.782Z,44.10
2019-05-09T13:38:08.738Z,44.10
2019-05-09T13:40:58.391Z,44.10
2019-05-09T13:43:57.602Z,44.00
2019-05-09T13:46:38.803Z,44.00
2019-05-09T13:49:28.559Z,44.00
2019-05-09T13:52:17.958Z,44.00
2019-05-09T13:55:09.525Z,44.00
2019-05-09T13:57:59.447Z,44.00
2019-05-09T14:00:56.715Z,43.90
2019-05-09T14:03:38.760Z,44.00
2019-05-09T14:06:28.728Z,44.00
2019-05-09T14:09:19.973Z,44.00
2019-05-09T14:12:09.350Z,44.00
2019-05-09T14:14:58.271Z,44.00
2019-05-09T14:17:52.620Z,44.00
2019-05-09T14:20:37.796Z,44.00
2019-05-09T14:23:34.995Z,43.90
2019-05-09T14:26:18.016Z,43.90
2019-05-09T14:29:06.651Z,44.00
2019-05-09T14:31:54.815Z,44.00
2019-05-09T14:34:43.243Z,44.00
2019-05-09T14:37:31.647Z,44.00
2019-05-09T14:40:19.904Z,44.00
2019-05-09T14:43:09.795Z,44.00
2019-05-09T14:45:58.188Z,44.00
2019-05-09T14:48:48.227Z,44.00
2019-05-09T14:51:38.065Z,44.00
2019-05-09T14:54:28.858Z,44.00
2019-05-09T14:57:17.522Z,44.00
2019-05-09T15:00:07.735Z,43.90
2019-05-09T15:02:58.140Z,43.90
2019-05-09T15:05:48.040Z,43.90
2019-05-09T15:08:38.187Z,43.90
2019-05-09T15:11:28.354Z,43.90
2019-05-09T15:14:18.144Z,43.90
2019-05-09T15:17:08.831Z,43.90
2019-05-09T15:20:00.465Z,43.90
2019-05-09T15:22:47.925Z,43.90
2019-05-09T15:25:36.762Z,43.90
2019-05-09T15:28:25.321Z,43.90
2019-05-09T15:31:13.451Z,43.90
2019-05-09T15:34:01.767Z,43.90
2019-05-09T15:36:50.095Z,43.90
2019-05-09T15:39:38.340Z,43.90
2019-05-09T15:42:26.876Z,44.00
2019-05-09T15:45:18.365Z,43.90
2019-05-09T15:48:08.412Z,43.90
2019-05-09T15:50:58.343Z,43.90
2019-05-09T15:53:48.754Z,43.90
2019-05-09T15:56:38.400Z,43.90
2019-05-09T15:59:28.210Z,44.00
2019-05-09T16:02:19.141Z,44.00
2019-05-09T16:05:10.089Z,44.00
2019-05-09T16:07:55.922Z,44.00
2019-05-09T16:10:44.243Z,44.00
2019-05-09T16:13:32.379Z,44.00
2019-05-09T16:16:20.609Z,43.90
2019-05-09T16:19:09.158Z,44.00
2019-05-09T16:21:58.519Z,44.00
2019-05-09T16:24:48.569Z,44.00
2019-05-09T16:27:37.989Z,44.00
2019-05-09T16:30:27.528Z,44.00
2019-05-09T16:33:18.247Z,44.00
2019-05-09T16:36:05.896Z,44.10
2019-05-09T16:38:54.167Z,44.00
2019-05-09T16:41:42.338Z,44.10
2019-05-09T16:44:31.018Z,44.00
2019-05-09T16:47:21.401Z,44.00
2019-05-09T16:50:12.100Z,44.10
2019-05-09T16:52:59.083Z,44.00
2019-05-09T16:55:47.222Z,44.10
2019-05-09T16:58:37.921Z,44.00
2019-05-09T17:01:28.205Z,44.10
2019-05-09T17:04:18.887Z,44.00
2019-05-09T17:07:05.685Z,44.20
2019-05-09T17:09:54.168Z,44.00
2019-05-09T17:12:42.395Z,44.00
2019-05-09T17:15:31.143Z,44.00
2019-05-09T17:18:19.406Z,44.00
2019-05-09T17:21:18.421Z,44.20
2019-05-09T17:24:00.856Z,44.10
2019-05-09T17:26:49.096Z,44.20
2019-05-09T17:29:38.283Z,44.10
2019-05-09T17:32:28.490Z,44.10
2019-05-09T17:35:18.575Z,44.10
2019-05-09T17:38:08.690Z,44.10
2019-05-09T17:40:57.891Z,44.10
2019-05-09T17:43:47.454Z,44.10
2019-05-09T17:46:38.573Z,44.20
2019-05-09T17:49:27.892Z,44.10
2019-05-09T17:52:18.090Z,44.10
2019-05-09T17:55:11.786Z,44.10
2019-05-09T17:58:00.271Z,44.10
2019-05-09T18:00:49.004Z,44.10
2019-05-09T18:03:38.490Z,44.10
2019-05-09T18:06:28.201Z,44.20
2019-05-09T18:09:18.957Z,44.20
2019-05-09T18:12:08.378Z,44.20
2019-05-09T18:14:56.774Z,44.10
2019-05-09T18:17:47.705Z,44.20
2019-05-09T18:20:37.732Z,44.10
2019-05-09T18:23:25.367Z,44.10
2019-05-09T18:26:13.791Z,44.10
2019-05-09T18:29:02.111Z,44.10
2019-05-09T18:31:52.172Z,44.20
2019-05-09T18:34:40.555Z,44.20
2019-05-09T18:37:29.062Z,44.20
2019-05-09T18:40:18.014Z,44.20
2019-05-09T18:43:07.774Z,44.20
2019-05-09T18:45:57.786Z,44.20
2019-05-09T18:48:47.838Z,44.20
2019-05-09T18:51:36.504Z,44.20
2019-05-09T18:54:25.025Z,44.20
2019-05-09T18:57:13.596Z,44.20
2019-05-09T19:00:02.145Z,44.20
2019-05-09T19:02:50.763Z,44.20
2019-05-09T19:05:39.295Z,44.30
2019-05-09T19:08:28.834Z,44.30
2019-05-09T19:11:17.374Z,44.20
2019-05-09T19:14:06.959Z,44.20
2019-05-09T19:16:57.065Z,44.20
2019-05-09T19:19:46.864Z,44.20
2019-05-09T19:22:36.500Z,44.20
2019-05-09T19:25:25.031Z,44.30
2019-05-09T19:28:13.132Z,44.30
2019-05-09T19:31:01.459Z,44.30
2019-05-09T19:33:49.459Z,44.20
2019-05-09T19:36:50.689Z,44.20
2019-05-09T19:39:39.159Z,44.30
2019-05-09T19:42:27.399Z,44.30
2019-05-09T19:45:16.079Z,44.30
2019-05-09T19:48:04.366Z,44.30
2019-05-09T19:50:52.379Z,44.30
2019-05-09T19:53:40.955Z,44.30
2019-05-09T19:56:29.149Z,44.30
2019-05-09T19:59:17.535Z,44.30
2019-05-09T20:02:06.078Z,44.30
2019-05-09T20:04:55.365Z,44.30
2019-05-09T20:07:43.531Z,44.30
2019-05-09T20:10:49.802Z,44.30
2019-05-09T20:13:58.041Z,44.30
2019-05-09T20:16:48.132Z,44.30
2019-05-09T20:19:36.412Z,44.30
2019-05-09T20:22:25.202Z,44.30
2019-05-09T20:25:13.710Z,44.30
2019-05-09T20:28:02.262Z,44.30
2019-05-09T20:30:50.807Z,44.40
2019-05-09T20:33:39.286Z,44.40
2019-05-09T20:36:27.675Z,44.40
2019-05-09T20:39:16.011Z,44.40
2019-05-09T20:42:04.933Z,44.40
2019-05-09T20:44:53.597Z,44.40
2019-05-09T20:47:42.451Z,44.40
2019-05-09T20:50:30.960Z,44.40
2019-05-09T20:53:19.663Z,44.40
2019-05-09T20:56:09.461Z,44.50
2019-05-09T20:58:57.938Z,44.40
2019-05-09T21:01:48.104Z,44.50
2019-05-09T21:04:36.515Z,44.40
2019-05-09T21:07:25.011Z,44.50
2019-05-09T21:10:13.545Z,44.60
2019-05-09T21:13:02.098Z,44.60
2019-05-09T21:15:52.020Z,44.60
2019-05-09T21:18:40.663Z,45.20
2019-05-09T21:21:29.551Z,44.50
2019-05-09T21:24:17.921Z,44.50
2019-05-09T21:27:06.466Z,44.70
2019-05-09T21:29:55.288Z,44.60
2019-05-09T21:32:43.859Z,44.60
2019-05-09T21:35:32.007Z,44.60
2019-05-09T21:38:20.431Z,44.60
2019-05-09T21:41:08.730Z,44.60
2019-05-09T21:43:57.366Z,44.60
2019-05-09T21:46:45.606Z,44.60
2019-05-09T21:49:33.774Z,44.60
2019-05-09T21:52:22.296Z,44.70
2019-05-09T21:55:10.666Z,44.60
2019-05-09T21:57:59.125Z,44.70
2019-05-09T22:00:50.434Z,44.70
2019-05-09T22:03:40.575Z,44.70
2019-05-09T22:06:28.623Z,44.70
2019-05-09T22:09:17.141Z,44.70
2019-05-09T22:12:05.992Z,44.70
2019-05-09T22:14:54.335Z,44.70
2019-05-09T22:17:42.339Z,44.70
2019-05-09T22:20:30.634Z,44.70
2019-05-09T22:23:18.973Z,44.70
2019-05-09T22:26:06.962Z,44.70
2019-05-09T22:28:55.179Z,44.80
2019-05-09T22:31:43.564Z,45.10
2019-05-09T22:34:32.212Z,45.10
2019-05-09T22:37:20.888Z,44.90
2019-05-09T22:40:09.398Z,44.80
2019-05-09T22:42:57.655Z,44.80
2019-05-09T22:45:45.915Z,44.90
2019-05-09T22:48:34.261Z,44.80
2019-05-09T22:51:22.426Z,44.90
2019-05-09T22:54:13.028Z,44.90
2019-05-09T22:57:00.547Z,44.90
2019-05-09T22:59:49.427Z,44.90
2019-05-09T23:07:08.562Z,44.90
2019-05-09T23:09:56.775Z,44.90
2019-05-09T23:12:45.090Z,45.00
2019-05-09T23:15:33.571Z,44.90
2019-05-09T23:18:22.089Z,44.90
2019-05-09T23:21:10.355Z,44.90
2019-05-09T23:24:09.808Z,44.80
2019-05-09T23:26:58.330Z,44.90
2019-05-09T23:29:46.801Z,44.90
2019-05-09T23:32:36.771Z,44.80
2019-05-09T23:35:24.915Z,44.80
2019-05-09T23:38:13.209Z,44.90
2019-05-09T23:41:01.652Z,44.90
2019-05-09T23:43:49.987Z,44.90
2019-05-09T23:46:38.094Z,44.80
2019-05-09T23:49:26.427Z,44.80
2019-05-09T23:52:14.655Z,44.90
2019-05-09T23:55:21.239Z,44.90
2019-05-09T23:58:27.716Z,44.90
